createdAt,value
2018-11-25T00:01:06.905Z,14.07
2018-11-25T00:03:38.906Z,12.40
2018-11-25T00:06:10.892Z,13.30
2018-11-25T00:08:42.964Z,17.00
2018-11-25T00:11:14.092Z,13.83
2018-11-25T00:13:45.251Z,12.20
2018-11-25T00:16:17.230Z,13.23
2018-11-25T00:18:48.379Z,12.57
2018-11-25T00:21:19.501Z,14.37
2018-11-25T00:23:50.626Z,14.47
2018-11-25T00:26:22.588Z,14.10
2018-11-25T00:28:53.752Z,13.53
2018-11-25T00:31:24.879Z,13.87
2018-11-25T00:33:56.029Z,13.10
2018-11-25T00:36:27.111Z,14.50
2018-11-25T00:38:58.241Z,13.27
2018-11-25T00:41:29.370Z,13.40
2018-11-25T00:44:00.584Z,13.07
2018-11-25T00:46:31.672Z,13.27
2018-11-25T00:49:02.834Z,13.00
2018-11-25T00:51:33.983Z,12.50
2018-11-25T00:54:05.170Z,11.47
2018-11-25T00:56:36.389Z,12.67
2018-11-25T00:59:08.598Z,12.47
2018-11-25T01:01:39.627Z,13.53
2018-11-25T01:04:10.755Z,12.00
2018-11-25T01:06:41.934Z,12.47
2018-11-25T01:09:13.063Z,11.97
2018-11-25T01:11:45.040Z,11.23
2018-11-25T01:14:16.285Z,11.50
2018-11-25T01:16:50.018Z,12.33
2018-11-25T01:19:21.123Z,12.57
2018-11-25T01:21:52.189Z,11.97
2018-11-25T01:24:23.300Z,12.33
2018-11-25T01:26:54.413Z,11.50
2018-11-25T01:29:25.632Z,12.20
2018-11-25T01:31:56.726Z,12.90
2018-11-25T01:34:27.891Z,11.83
2018-11-25T01:36:58.961Z,12.03
2018-11-25T01:39:30.128Z,11.70
2018-11-25T01:42:02.070Z,11.80
2018-11-25T01:44:33.296Z,11.23
2018-11-25T01:47:04.494Z,11.63
2018-11-25T01:49:35.611Z,11.03
2018-11-25T01:52:06.964Z,12.67
2018-11-25T01:54:38.084Z,10.40
2018-11-25T01:57:09.202Z,11.03
2018-11-25T01:59:40.335Z,10.70
2018-11-25T02:02:11.466Z,10.37
2018-11-25T02:04:42.601Z,11.40
2018-11-25T02:07:14.541Z,10.87
2018-11-25T02:09:45.668Z,10.63
2018-11-25T02:12:16.834Z,11.00
2018-11-25T02:20:25.252Z,10.47
2018-11-25T02:22:57.062Z,10.40
2018-11-25T02:25:28.188Z,11.50
2018-11-25T02:27:59.304Z,11.63
2018-11-25T02:30:30.415Z,12.80
2018-11-25T02:33:01.583Z,11.07
2018-11-25T02:35:32.665Z,11.53
2018-11-25T02:38:04.773Z,12.50
2018-11-25T02:40:35.888Z,11.70
2018-11-25T02:43:07.060Z,13.07
2018-11-25T02:45:38.162Z,12.67
2018-11-25T02:48:09.353Z,12.53
2018-11-25T02:50:40.438Z,12.10
2018-11-25T02:53:11.566Z,12.17
2018-11-25T02:55:42.658Z,12.33
2018-11-25T02:58:13.819Z,12.20
2018-11-25T03:00:45.023Z,11.63
2018-11-25T03:03:16.100Z,11.40
2018-11-25T03:05:47.261Z,12.17
2018-11-25T03:08:18.422Z,12.00
2018-11-25T03:10:49.530Z,12.67
2018-11-25T03:13:20.650Z,13.43
2018-11-25T03:15:51.725Z,13.77
2018-11-25T03:18:28.397Z,12.77
2018-11-25T03:20:59.497Z,14.77
2018-11-25T03:23:30.605Z,13.70
2018-11-25T03:26:01.704Z,14.90
2018-11-25T03:28:32.856Z,12.13
2018-11-25T03:31:03.979Z,13.80
2018-11-25T03:33:35.099Z,15.47
2018-11-25T03:36:06.276Z,14.30
2018-11-25T03:38:37.378Z,14.10
2018-11-25T03:41:08.636Z,14.13
2018-11-25T03:43:39.897Z,14.57
2018-11-25T03:46:11.030Z,15.13
2018-11-25T03:48:42.137Z,15.07
2018-11-25T03:51:13.318Z,14.23
2018-11-25T03:53:44.411Z,14.33
2018-11-25T03:56:15.534Z,13.27
2018-11-25T03:58:46.651Z,13.00
2018-11-25T04:01:17.760Z,12.90
2018-11-25T04:03:48.842Z,14.27
2018-11-25T04:06:19.984Z,14.13
2018-11-25T04:08:51.081Z,13.70
2018-11-25T04:11:22.188Z,13.43
2018-11-25T04:13:53.285Z,14.17
2018-11-25T04:16:24.441Z,14.27
2018-11-25T04:18:56.416Z,13.60
2018-11-25T04:21:27.536Z,13.77
2018-11-25T04:23:58.633Z,14.23
2018-11-25T04:26:29.746Z,13.87
2018-11-25T04:29:00.841Z,13.93
2018-11-25T04:31:31.960Z,13.60
2018-11-25T04:34:03.093Z,14.17
2018-11-25T04:36:34.203Z,12.60
2018-11-25T04:39:08.043Z,13.37
2018-11-25T04:41:39.163Z,13.23
2018-11-25T04:44:10.261Z,13.23
2018-11-25T04:46:41.360Z,14.40
2018-11-25T04:49:12.471Z,12.83
2018-11-25T04:51:43.590Z,11.47
2018-11-25T04:54:14.807Z,11.97
2018-11-25T04:56:45.894Z,12.47
2018-11-25T04:59:17.013Z,12.57
2018-11-25T05:01:48.153Z,13.77
2018-11-25T05:04:19.278Z,11.87
2018-11-25T05:06:50.389Z,12.93
2018-11-25T05:09:21.503Z,11.53
2018-11-25T05:11:52.623Z,11.97
2018-11-25T05:14:23.726Z,12.43
2018-11-25T05:16:54.991Z,12.00
2018-11-25T05:19:26.382Z,12.23
2018-11-25T05:21:57.504Z,12.07
2018-11-25T05:24:28.669Z,11.23
2018-11-25T05:26:59.830Z,12.97
2018-11-25T05:29:30.977Z,12.03
2018-11-25T05:32:02.118Z,10.70
2018-11-25T05:34:33.195Z,13.53
2018-11-25T05:37:04.339Z,12.67
2018-11-25T05:39:35.426Z,11.93
2018-11-25T05:42:06.570Z,12.50
2018-11-25T05:44:37.650Z,12.77
2018-11-25T05:47:08.767Z,12.50
2018-11-25T05:49:39.907Z,12.07
2018-11-25T05:52:11.030Z,12.77
2018-11-25T05:54:42.153Z,12.93
2018-11-25T05:57:13.267Z,12.17
2018-11-25T05:59:44.337Z,12.70
2018-11-25T06:02:15.443Z,12.03
2018-11-25T06:04:46.532Z,12.47
2018-11-25T06:07:17.645Z,11.77
2018-11-25T06:09:48.730Z,13.17
2018-11-25T06:12:19.833Z,12.43
2018-11-25T06:14:50.955Z,13.43
2018-11-25T06:17:23.341Z,11.87
2018-11-25T06:19:54.601Z,12.57
2018-11-25T06:22:25.734Z,12.00
2018-11-25T06:24:56.851Z,13.17
2018-11-25T06:30:06.174Z,13.17
2018-11-25T06:32:37.350Z,13.13
2018-11-25T06:35:09.833Z,14.10
2018-11-25T06:37:40.972Z,13.40
2018-11-25T06:40:18.857Z,14.50
2018-11-25T06:42:50.030Z,14.73
2018-11-25T06:45:31.023Z,14.37
2018-11-25T06:48:02.186Z,14.50
2018-11-25T06:50:33.276Z,14.37
2018-11-25T06:53:04.486Z,14.07
2018-11-25T06:55:35.591Z,13.77
2018-11-25T06:58:06.713Z,13.90
2018-11-25T07:00:37.827Z,13.07
2018-11-25T07:03:09.351Z,13.37
2018-11-25T07:05:40.506Z,15.00
2018-11-25T07:08:11.696Z,14.00
2018-11-25T07:10:42.764Z,14.00
2018-11-25T07:13:13.929Z,13.67
2018-11-25T07:15:45.019Z,14.07
2018-11-25T07:18:16.156Z,13.53
2018-11-25T07:20:47.230Z,13.10
2018-11-25T07:23:18.405Z,14.20
2018-11-25T07:25:49.504Z,13.87
2018-11-25T07:28:20.666Z,13.77
2018-11-25T07:30:51.837Z,13.80
2018-11-25T07:33:23.013Z,14.37
2018-11-25T07:35:54.160Z,14.33
2018-11-25T07:38:25.395Z,15.10
2018-11-25T07:40:56.525Z,14.77
2018-11-25T07:43:27.760Z,12.80
2018-11-25T07:45:58.940Z,14.97
2018-11-25T07:48:30.082Z,14.43
2018-11-25T07:51:01.219Z,15.67
2018-11-25T07:53:32.345Z,15.17
2018-11-25T07:56:03.438Z,15.33
2018-11-25T07:58:34.660Z,13.43
2018-11-25T08:01:05.784Z,15.43
2018-11-25T08:03:36.936Z,15.10
2018-11-25T08:06:08.176Z,14.17
2018-11-25T08:08:39.445Z,15.13
2018-11-25T08:11:10.603Z,14.23
2018-11-25T08:13:43.058Z,14.90
2018-11-25T08:16:14.313Z,15.03
2018-11-25T08:18:45.754Z,14.07
2018-11-25T08:21:16.879Z,14.57
2018-11-25T08:23:49.013Z,15.00
2018-11-25T08:26:20.193Z,14.00
2018-11-25T08:28:52.187Z,14.30
2018-11-25T08:31:23.290Z,13.47
2018-11-25T08:33:54.477Z,13.87
2018-11-25T08:36:25.601Z,13.87
2018-11-25T08:38:56.936Z,12.20
2018-11-25T08:41:28.100Z,13.00
2018-11-25T08:43:59.321Z,12.73
2018-11-25T08:46:30.426Z,14.03
2018-11-25T08:49:01.630Z,14.13
2018-11-25T08:51:32.769Z,14.03
2018-11-25T08:54:04.003Z,15.37
2018-11-25T08:56:35.105Z,13.97
2018-11-25T08:59:06.388Z,13.80
2018-11-25T09:01:37.478Z,14.67
2018-11-25T09:04:08.629Z,13.30
2018-11-25T09:06:39.769Z,13.37
2018-11-25T09:09:10.965Z,14.77
2018-11-25T09:11:42.112Z,15.93
2018-11-25T09:14:13.381Z,14.70
2018-11-25T09:16:44.470Z,15.37
2018-11-25T09:19:15.648Z,13.40
2018-11-25T09:21:46.774Z,13.87
2018-11-25T09:24:17.990Z,13.40
2018-11-25T09:26:49.102Z,13.90
2018-11-25T09:29:20.239Z,13.97
2018-11-25T09:31:51.355Z,15.40
2018-11-25T09:34:22.616Z,15.83
2018-11-25T09:36:53.774Z,13.80
2018-11-25T09:39:24.911Z,14.87
2018-11-25T09:41:56.005Z,16.17
2018-11-25T09:44:27.170Z,15.87
2018-11-25T09:46:58.307Z,15.53
2018-11-25T09:49:29.491Z,15.13
2018-11-25T09:52:00.597Z,15.03
2018-11-25T09:54:31.812Z,15.60
2018-11-25T09:57:02.935Z,14.27
2018-11-25T09:59:34.122Z,15.60
2018-11-25T10:02:05.254Z,14.90
2018-11-25T10:04:36.387Z,15.20
2018-11-25T10:07:07.569Z,14.47
2018-11-25T10:09:38.762Z,14.97
2018-11-25T10:12:09.884Z,15.00
2018-11-25T10:14:41.034Z,14.73
2018-11-25T10:17:12.469Z,15.65
2018-11-25T10:19:43.680Z,14.00
2018-11-25T10:22:15.743Z,14.87
2018-11-25T10:27:29.729Z,14.33
2018-11-25T10:30:00.959Z,14.37
2018-11-25T10:32:32.126Z,14.80
2018-11-25T10:35:03.303Z,14.77
2018-11-25T10:37:34.759Z,15.83
2018-11-25T10:40:08.811Z,15.83
2018-11-25T10:42:39.965Z,14.37
2018-11-25T10:45:12.590Z,16.10
2018-11-25T10:47:43.697Z,14.77
2018-11-25T10:50:18.887Z,15.30
2018-11-25T10:52:54.753Z,16.00
2018-11-25T10:55:25.876Z,15.13
2018-11-25T10:57:57.032Z,15.17
2018-11-25T11:00:49.403Z,15.53
2018-11-25T11:03:37.988Z,15.43
2018-11-25T11:06:26.337Z,15.93
2018-11-25T11:09:09.760Z,14.47
2018-11-25T11:11:40.956Z,15.67
2018-11-25T11:14:12.105Z,14.93
2018-11-25T11:16:43.268Z,15.40
2018-11-25T11:19:14.438Z,17.10
2018-11-25T11:21:45.627Z,16.40
2018-11-25T11:24:16.850Z,15.97
2018-11-25T11:27:01.994Z,16.10
2018-11-25T11:29:33.290Z,16.30
2018-11-25T11:32:04.500Z,16.97
2018-11-25T11:34:36.568Z,17.80
2018-11-25T11:37:07.848Z,16.77
2018-11-25T11:39:39.056Z,17.50
2018-11-25T11:42:10.223Z,19.23
2018-11-25T11:44:41.428Z,16.83
2018-11-25T11:47:12.634Z,16.30
2018-11-25T11:49:43.895Z,17.40
2018-11-25T11:52:15.076Z,16.83
2018-11-25T11:54:47.991Z,17.03
2018-11-25T11:57:30.878Z,15.60
2018-11-25T12:00:16.408Z,17.10
2018-11-25T12:02:47.624Z,16.23
2018-11-25T12:05:18.797Z,16.27
2018-11-25T12:07:50.118Z,15.97
2018-11-25T12:10:21.391Z,15.37
2018-11-25T12:12:52.602Z,16.37
2018-11-25T12:18:12.403Z,16.73
2018-11-25T12:20:43.630Z,15.70
2018-11-25T12:23:14.766Z,15.90
2018-11-25T12:25:46.021Z,17.00
2018-11-25T12:28:17.204Z,15.60
2018-11-25T12:30:49.140Z,15.83
2018-11-25T12:33:20.345Z,13.80
2018-11-25T12:35:52.649Z,14.93
2018-11-25T12:38:32.386Z,14.27
2018-11-25T12:41:09.909Z,14.90
2018-11-25T12:43:47.078Z,15.63
2018-11-25T12:46:18.293Z,15.30
2018-11-25T12:48:53.588Z,14.10
2018-11-25T12:51:24.770Z,14.73
2018-11-25T12:53:58.289Z,13.33
2018-11-25T12:56:36.012Z,13.83
2018-11-25T12:59:07.233Z,14.97
2018-11-25T13:01:38.510Z,15.63
2018-11-25T13:04:09.629Z,14.87
2018-11-25T13:06:40.838Z,15.90
2018-11-25T13:09:12.130Z,15.20
2018-11-25T13:11:44.448Z,14.87
2018-11-25T13:14:15.346Z,14.70
2018-11-25T13:16:46.535Z,15.33
2018-11-25T13:19:19.813Z,14.27
2018-11-25T13:21:51.311Z,15.50
2018-11-25T13:24:22.523Z,14.93
2018-11-25T13:26:53.826Z,15.17
2018-11-25T13:29:24.977Z,16.83
2018-11-25T13:31:56.323Z,16.93
2018-11-25T13:34:27.454Z,16.63
2018-11-25T13:37:10.652Z,17.80
2018-11-25T13:39:47.031Z,17.77
2018-11-25T13:42:27.707Z,19.03
2018-11-25T13:44:56.782Z,18.80
2018-11-25T13:47:27.939Z,17.97
2018-11-25T13:49:59.087Z,18.47
2018-11-25T13:55:23.287Z,17.93
2018-11-25T14:00:54.115Z,20.90
2018-11-25T14:03:39.643Z,19.77
2018-11-25T14:06:13.720Z,18.00
2018-11-25T14:08:46.457Z,17.93
2018-11-25T14:14:02.694Z,19.50
2018-11-25T14:16:35.015Z,19.97
2018-11-25T14:19:10.986Z,17.93
2018-11-25T14:21:46.381Z,17.50
2018-11-25T14:24:25.523Z,18.30
2018-11-25T14:27:03.809Z,17.47
2018-11-25T14:29:35.071Z,19.40
2018-11-25T14:32:06.500Z,18.13
2018-11-25T14:34:37.638Z,19.20
2018-11-25T14:37:08.899Z,18.33
2018-11-25T14:39:40.093Z,19.13
2018-11-25T14:42:11.338Z,18.70
2018-11-25T14:44:42.474Z,19.53
2018-11-25T14:47:13.706Z,20.00
2018-11-25T14:49:44.871Z,18.63
2018-11-25T14:52:16.079Z,19.60
2018-11-25T14:54:51.318Z,19.60
2018-11-25T14:57:19.292Z,17.63
2018-11-25T14:59:50.501Z,17.40
2018-11-25T15:02:21.692Z,17.70
2018-11-25T15:04:58.179Z,17.37
2018-11-25T15:07:35.134Z,18.00
2018-11-25T15:10:06.758Z,17.50
2018-11-25T15:12:37.960Z,16.40
2018-11-25T15:15:15.319Z,17.93
2018-11-25T15:17:52.352Z,18.60
2018-11-25T15:20:23.492Z,17.90
2018-11-25T15:22:59.217Z,19.37
2018-11-25T15:25:32.368Z,19.13
2018-11-25T15:28:03.639Z,17.23
2018-11-25T15:30:34.864Z,18.57
2018-11-25T15:33:06.081Z,17.60
2018-11-25T15:35:37.234Z,17.73
2018-11-25T15:38:08.765Z,16.73
2018-11-25T15:40:40.277Z,17.93
2018-11-25T15:43:12.299Z,16.67
2018-11-25T15:45:43.487Z,16.33
2018-11-25T15:48:19.428Z,16.23
2018-11-25T15:50:50.706Z,16.67
2018-11-25T15:53:21.900Z,15.50
2018-11-25T15:55:54.585Z,16.87
2018-11-25T15:58:25.748Z,15.77
2018-11-25T16:00:57.100Z,16.20
2018-11-25T16:03:29.352Z,14.70
2018-11-25T16:06:13.576Z,15.80
2018-11-25T16:08:44.891Z,13.87
2018-11-25T16:11:16.102Z,13.43
2018-11-25T16:13:47.478Z,11.97
2018-11-25T16:16:22.606Z,13.63
2018-11-25T16:18:53.933Z,13.13
2018-11-25T16:32:49.157Z,10.30
2018-11-25T16:35:20.532Z,11.17
2018-11-25T16:46:20.137Z,10.73
2018-11-25T16:48:51.549Z,11.03
2018-11-25T16:54:12.796Z,10.27
2018-11-25T16:56:44.131Z,11.83
2018-11-25T16:59:15.404Z,11.07
2018-11-25T17:01:46.667Z,11.13
2018-11-25T17:07:12.692Z,12.87
2018-11-25T17:09:44.017Z,12.70
2018-11-25T17:15:14.300Z,12.10
2018-11-25T17:17:45.524Z,12.80
2018-11-25T17:20:16.848Z,12.77
2018-11-25T17:22:48.081Z,12.90
2018-11-25T17:25:19.272Z,13.27
2018-11-25T17:29:23.998Z,11.70
2018-11-25T17:31:55.328Z,14.10
2018-11-25T17:40:56.443Z,12.73
2018-11-25T17:43:27.885Z,13.20
2018-11-25T17:48:48.318Z,12.47
2018-11-25T17:51:19.823Z,12.53
2018-11-25T17:59:29.535Z,13.23
2018-11-25T18:02:01.824Z,12.90
2018-11-25T18:04:34.163Z,12.53
2018-11-25T18:07:05.709Z,11.90
2018-11-25T18:09:36.945Z,13.37
2018-11-25T18:12:08.290Z,12.73
2018-11-25T18:14:39.983Z,13.27
2018-11-25T18:29:15.885Z,14.07
2018-11-25T18:31:47.325Z,14.27
2018-11-25T18:34:18.845Z,14.23
2018-11-25T18:36:50.166Z,16.53
2018-11-25T18:39:27.562Z,14.30
2018-11-25T18:41:59.166Z,15.13
2018-11-25T18:44:30.538Z,15.63
2018-11-25T18:47:08.646Z,14.70
2018-11-25T19:12:13.439Z,15.87
2018-11-25T19:14:49.281Z,16.80
2018-11-25T19:17:21.715Z,14.30
2018-11-25T19:23:32.896Z,14.87
2018-11-25T19:26:06.552Z,14.83
2018-11-25T19:31:27.945Z,14.20
2018-11-25T19:33:59.390Z,13.73
2018-11-25T19:36:30.930Z,14.07
2018-11-25T19:42:02.397Z,13.43
2018-11-25T19:44:33.820Z,12.90
2018-11-25T19:47:05.128Z,13.57
2018-11-25T19:49:37.031Z,13.90
2018-11-25T19:52:08.306Z,13.67
2018-11-25T19:54:39.656Z,13.50
2018-11-25T19:57:11.001Z,12.83
2018-11-25T19:59:42.703Z,13.23
2018-11-25T20:02:13.916Z,13.93
2018-11-25T20:04:46.038Z,13.13
2018-11-25T20:07:21.821Z,14.33
2018-11-25T20:09:57.287Z,13.90
2018-11-25T20:12:41.194Z,13.70
2018-11-25T20:15:19.575Z,13.97
2018-11-25T20:17:54.384Z,13.93
2018-11-25T20:20:29.366Z,13.30
2018-11-25T20:23:00.701Z,12.83
2018-11-25T20:25:35.764Z,13.83
2018-11-25T20:28:07.251Z,13.77
2018-11-25T20:30:38.592Z,12.97
2018-11-25T20:33:27.166Z,15.03
2018-11-25T20:35:58.562Z,14.40
2018-11-25T20:38:47.247Z,13.67
2018-11-25T20:41:18.491Z,12.67
2018-11-25T20:43:50.321Z,13.38
2018-11-25T20:46:38.762Z,13.57
2018-11-25T20:49:10.191Z,14.67
2018-11-25T20:51:58.229Z,13.07
2018-11-25T20:54:29.631Z,13.73
2018-11-25T20:57:00.927Z,14.77
2018-11-25T20:59:32.287Z,14.27
2018-11-25T21:02:03.674Z,14.97
2018-11-25T21:04:35.013Z,13.97
2018-11-25T21:07:06.413Z,15.07
2018-11-25T21:09:37.819Z,14.50
2018-11-25T21:12:09.161Z,15.43
2018-11-25T21:14:40.426Z,15.23
2018-11-25T21:17:13.238Z,15.00
2018-11-25T21:19:43.832Z,15.80
2018-11-25T21:22:15.022Z,15.53
2018-11-25T21:24:46.306Z,15.53
2018-11-25T21:27:17.558Z,15.07
2018-11-25T21:29:48.884Z,16.30
2018-11-25T21:32:20.238Z,16.60
2018-11-25T21:34:51.451Z,15.90
2018-11-25T21:37:22.742Z,15.97
2018-11-25T21:39:53.961Z,17.37
2018-11-25T21:42:25.339Z,15.93
2018-11-25T21:44:56.580Z,15.47
2018-11-25T21:47:27.708Z,16.53
2018-11-25T21:49:58.835Z,16.80
2018-11-25T21:52:29.994Z,16.73
2018-11-25T21:55:01.328Z,16.53
2018-11-25T21:57:32.564Z,17.83
2018-11-25T22:00:03.751Z,17.30
2018-11-25T22:02:34.870Z,17.53
2018-11-25T22:05:06.338Z,18.23
2018-11-25T22:07:37.555Z,18.33
2018-11-25T22:10:16.087Z,16.67
2018-11-25T22:12:47.523Z,16.43
2018-11-25T22:15:22.946Z,17.77
2018-11-25T22:17:54.114Z,16.90
2018-11-25T22:20:25.261Z,18.20
2018-11-25T22:22:56.402Z,18.43
2018-11-25T22:25:27.556Z,17.03
2018-11-25T22:27:58.746Z,18.30
2018-11-25T22:30:30.229Z,16.70
2018-11-25T22:33:01.399Z,17.77
2018-11-25T22:35:32.628Z,17.93
2018-11-25T22:38:03.784Z,17.20
2018-11-25T22:40:34.961Z,16.37
2018-11-25T22:43:06.101Z,18.10
2018-11-25T22:45:37.309Z,16.40
2018-11-25T22:48:08.494Z,17.93
2018-11-25T22:50:39.697Z,17.80
2018-11-25T22:53:10.823Z,18.57
2018-11-25T22:55:42.008Z,16.97
2018-11-25T22:58:13.185Z,16.43
2018-11-25T23:00:45.339Z,17.10
2018-11-25T23:03:17.402Z,16.47
2018-11-25T23:06:25.009Z,16.53
2018-11-25T23:08:56.156Z,17.07
2018-11-25T23:11:27.326Z,17.83
2018-11-25T23:13:58.499Z,16.70
2018-11-25T23:16:29.649Z,17.03
2018-11-25T23:19:00.744Z,15.43
2018-11-25T23:21:31.931Z,16.73
2018-11-25T23:24:03.674Z,16.13
2018-11-25T23:26:34.878Z,17.03
2018-11-25T23:29:06.037Z,16.30
2018-11-25T23:31:37.140Z,18.23
2018-11-25T23:34:09.226Z,16.90
2018-11-25T23:36:40.353Z,18.20
2018-11-25T23:39:11.844Z,18.13
2018-11-25T23:41:43.093Z,18.27
2018-11-25T23:44:14.287Z,18.77
2018-11-25T23:46:45.472Z,18.53
2018-11-25T23:49:16.579Z,18.03
2018-11-25T23:51:47.811Z,18.33
2018-11-25T23:54:18.904Z,18.87
2018-11-25T23:56:50.032Z,17.70
2018-11-25T23:59:21.142Z,19.13
